Terminal Aerodrome Forecast
Issued by NWS

Home | Current Version | Previous Version | Text Only | Print | Product List | Glossary On
Versions: 1 2 3 4 5 6 7 8 9 10 11 12 13 14 15 16 17 18 19 20 21 22 23 24 25
000
FTUS44 KOHX 171100
TAFCKV
TAF
KCKV 171120Z 1712/1812 36004KT 2SM BR SCT004
      TEMPO 1712/1713 1/2SM FG VV002
     FM171400 04004KT P6SM SCT005
     FM171600 34004KT P6SM SCT060 BKN150
     FM180100 VRB03KT P6SM BKN050=

USA.gov is the U.S. government's official web portal to all federal, state and local government web resources and services.